sensor_id;sensor_type;location;lat;lon;timestamp;temperature;humidity
31133;DHT22;17779;50.942;4.026;2024-02-15T00:01:57;13.30;99.90
31133;DHT22;17779;50.942;4.026;2024-02-15T00:04:22;13.30;99.90
31133;DHT22;17779;50.942;4.026;2024-02-15T00:06:48;13.30;99.90
31133;DHT22;17779;50.942;4.026;2024-02-15T00:09:13;13.30;99.90
31133;DHT22;17779;50.942;4.026;2024-02-15T00:11:39;13.30;99.90
31133;DHT22;17779;50.942;4.026;2024-02-15T00:14:05;13.30;99.90
31133;DHT22;17779;50.942;4.026;2024-02-15T00:16:30;13.30;99.90
31133;DHT22;17779;50.942;4.026;2024-02-15T00:18:56;13.30;99.90
31133;DHT22;17779;50.942;4.026;2024-02-15T00:21:22;13.30;99.90
31133;DHT22;17779;50.942;4.026;2024-02-15T00:23:49;13.30;99.90
31133;DHT22;17779;50.942;4.026;2024-02-15T00:26:15;13.40;99.90
31133;DHT22;17779;50.942;4.026;2024-02-15T00:28:41;13.30;99.90
31133;DHT22;17779;50.942;4.026;2024-02-15T00:31:06;13.30;99.90
31133;DHT22;17779;50.942;4.026;2024-02-15T00:33:33;13.30;99.90
31133;DHT22;17779;50.942;4.026;2024-02-15T00:35:59;13.30;99.90
31133;DHT22;17779;50.942;4.026;2024-02-15T00:38:24;13.40;99.90
31133;DHT22;17779;50.942;4.026;2024-02-15T00:40:50;13.40;99.90
31133;DHT22;17779;50.942;4.026;2024-02-15T00:43:17;13.40;99.90
31133;DHT22;17779;50.942;4.026;2024-02-15T00:45:42;13.30;99.90
31133;DHT22;17779;50.942;4.026;2024-02-15T00:48:08;13.30;99.90
31133;DHT22;17779;50.942;4.026;2024-02-15T00:50:33;13.20;99.90
31133;DHT22;17779;50.942;4.026;2024-02-15T00:52:59;13.20;99.90
31133;DHT22;17779;50.942;4.026;2024-02-15T00:55:24;13.20;99.90
31133;DHT22;17779;50.942;4.026;2024-02-15T00:57:50;13.20;99.90
31133;DHT22;17779;50.942;4.026;2024-02-15T01:00:15;13.30;99.90
31133;DHT22;17779;50.942;4.026;2024-02-15T01:02:41;13.40;99.90
31133;DHT22;17779;50.942;4.026;2024-02-15T01:05:07;13.40;99.90
31133;DHT22;17779;50.942;4.026;2024-02-15T01:07:32;13.40;99.90
31133;DHT22;17779;50.942;4.026;2024-02-15T01:09:58;13.40;99.90
31133;DHT22;17779;50.942;4.026;2024-02-15T01:12:24;13.30;99.90
31133;DHT22;17779;50.942;4.026;2024-02-15T01:14:49;13.40;99.90
31133;DHT22;17779;50.942;4.026;2024-02-15T01:17:15;13.50;99.90
31133;DHT22;17779;50.942;4.026;2024-02-15T01:19:41;13.40;99.90
31133;DHT22;17779;50.942;4.026;2024-02-15T01:22:06;13.30;99.90
31133;DHT22;17779;50.942;4.026;2024-02-15T01:24:32;13.20;99.90
31133;DHT22;17779;50.942;4.026;2024-02-15T01:26:59;13.20;99.90
31133;DHT22;17779;50.942;4.026;2024-02-15T01:29:24;13.10;99.90
31133;DHT22;17779;50.942;4.026;2024-02-15T01:31:51;13.10;99.90
31133;DHT22;17779;50.942;4.026;2024-02-15T01:34:16;13.10;99.90
31133;DHT22;17779;50.942;4.026;2024-02-15T01:36:42;13.10;99.90
31133;DHT22;17779;50.942;4.026;2024-02-15T01:39:07;13.10;99.90
31133;DHT22;17779;50.942;4.026;2024-02-15T01:41:33;13.20;99.90
31133;DHT22;17779;50.942;4.026;2024-02-15T01:43:59;13.20;99.90
31133;DHT22;17779;50.942;4.026;2024-02-15T01:46:24;13.20;99.90
31133;DHT22;17779;50.942;4.026;2024-02-15T01:48:50;13.10;99.90
31133;DHT22;17779;50.942;4.026;2024-02-15T01:51:16;13.20;99.90
31133;DHT22;17779;50.942;4.026;2024-02-15T01:53:42;13.20;99.90
31133;DHT22;17779;50.942;4.026;2024-02-15T01:56:08;13.20;99.90
31133;DHT22;17779;50.942;4.026;2024-02-15T01:58:33;13.30;99.90
31133;DHT22;17779;50.942;4.026;2024-02-15T02:01:00;13.30;99.90
31133;DHT22;17779;50.942;4.026;2024-02-15T02:03:27;13.30;99.90
31133;DHT22;17779;50.942;4.026;2024-02-15T02:05:53;13.30;99.90
31133;DHT22;17779;50.942;4.026;2024-02-15T02:08:20;13.20;99.90
31133;DHT22;17779;50.942;4.026;2024-02-15T02:10:47;13.20;99.90
31133;DHT22;17779;50.942;4.026;2024-02-15T02:13:13;13.20;99.90
31133;DHT22;17779;50.942;4.026;2024-02-15T02:15:38;13.30;99.90
31133;DHT22;17779;50.942;4.026;2024-02-15T02:18:06;13.30;99.90
31133;DHT22;17779;50.942;4.026;2024-02-15T02:20:32;13.30;99.90
31133;DHT22;17779;50.942;4.026;2024-02-15T02:23:03;13.20;99.90
31133;DHT22;17779;50.942;4.026;2024-02-15T02:25:32;13.30;99.90
31133;DHT22;17779;50.942;4.026;2024-02-15T02:27:59;13.30;99.90
31133;DHT22;17779;50.942;4.026;2024-02-15T02:30:26;13.20;99.90
31133;DHT22;17779;50.942;4.026;2024-02-15T02:32:58;13.30;99.90
31133;DHT22;17779;50.942;4.026;2024-02-15T02:35:24;13.20;99.90
31133;DHT22;17779;50.942;4.026;2024-02-15T02:37:50;13.10;99.90
31133;DHT22;17779;50.942;4.026;2024-02-15T02:40:16;13.10;99.90
31133;DHT22;17779;50.942;4.026;2024-02-15T02:45:21;13.10;99.90
31133;DHT22;17779;50.942;4.026;2024-02-15T02:47:54;13.10;99.90
31133;DHT22;17779;50.942;4.026;2024-02-15T02:50:22;13.10;99.90
31133;DHT22;17779;50.942;4.026;2024-02-15T02:52:48;13.10;99.90
31133;DHT22;17779;50.942;4.026;2024-02-15T02:55:14;13.10;99.90
31133;DHT22;17779;50.942;4.026;2024-02-15T02:57:40;13.10;99.90
31133;DHT22;17779;50.942;4.026;2024-02-15T03:00:10;13.00;99.90
31133;DHT22;17779;50.942;4.026;2024-02-15T03:02:38;13.00;99.90
31133;DHT22;17779;50.942;4.026;2024-02-15T03:05:04;12.90;99.90
31133;DHT22;17779;50.942;4.026;2024-02-15T03:07:33;12.90;99.90
31133;DHT22;17779;50.942;4.026;2024-02-15T03:10:00;12.80;99.90
31133;DHT22;17779;50.942;4.026;2024-02-15T03:12:25;12.70;99.90
31133;DHT22;17779;50.942;4.026;2024-02-15T03:14:52;12.70;99.90
31133;DHT22;17779;50.942;4.026;2024-02-15T03:17:17;12.80;99.90
31133;DHT22;17779;50.942;4.026;2024-02-15T03:19:43;12.80;99.90
31133;DHT22;17779;50.942;4.026;2024-02-15T03:22:09;12.70;99.90
31133;DHT22;17779;50.942;4.026;2024-02-15T03:24:34;12.70;99.90
31133;DHT22;17779;50.942;4.026;2024-02-15T03:27:00;12.70;99.90
31133;DHT22;17779;50.942;4.026;2024-02-15T03:29:25;12.70;99.90
31133;DHT22;17779;50.942;4.026;2024-02-15T03:31:51;12.70;99.90
31133;DHT22;17779;50.942;4.026;2024-02-15T03:34:18;12.70;99.90
31133;DHT22;17779;50.942;4.026;2024-02-15T03:36:47;12.60;99.90
31133;DHT22;17779;50.942;4.026;2024-02-15T03:39:17;12.60;99.90
31133;DHT22;17779;50.942;4.026;2024-02-15T03:41:43;12.60;99.90
31133;DHT22;17779;50.942;4.026;2024-02-15T03:44:11;12.50;99.90
31133;DHT22;17779;50.942;4.026;2024-02-15T03:46:37;12.50;99.90
31133;DHT22;17779;50.942;4.026;2024-02-15T03:49:02;12.50;99.90
31133;DHT22;17779;50.942;4.026;2024-02-15T03:51:28;12.50;99.90
31133;DHT22;17779;50.942;4.026;2024-02-15T03:53:54;12.40;99.90
31133;DHT22;17779;50.942;4.026;2024-02-15T03:56:20;12.40;99.90
31133;DHT22;17779;50.942;4.026;2024-02-15T03:58:47;12.40;99.90
31133;DHT22;17779;50.942;4.026;2024-02-15T04:01:15;12.40;99.90
31133;DHT22;17779;50.942;4.026;2024-02-15T04:03:41;12.40;99.90
31133;DHT22;17779;50.942;4.026;2024-02-15T04:06:06;12.40;99.90
31133;DHT22;17779;50.942;4.026;2024-02-15T04:08:32;12.40;99.90
31133;DHT22;17779;50.942;4.026;2024-02-15T04:10:59;12.50;99.90
31133;DHT22;17779;50.942;4.026;2024-02-15T04:13:24;12.40;99.90
31133;DHT22;17779;50.942;4.026;2024-02-15T04:15:50;12.40;99.90
31133;DHT22;17779;50.942;4.026;2024-02-15T04:18:18;12.40;99.90
31133;DHT22;17779;50.942;4.026;2024-02-15T04:20:44;12.50;99.90
31133;DHT22;17779;50.942;4.026;2024-02-15T04:23:12;12.50;99.90
31133;DHT22;17779;50.942;4.026;2024-02-15T04:25:38;12.50;99.90
31133;DHT22;17779;50.942;4.026;2024-02-15T04:28:04;12.50;99.90
31133;DHT22;17779;50.942;4.026;2024-02-15T04:30:31;12.50;99.90
31133;DHT22;17779;50.942;4.026;2024-02-15T04:32:57;12.50;99.90
31133;DHT22;17779;50.942;4.026;2024-02-15T04:35:22;12.50;99.90
31133;DHT22;17779;50.942;4.026;2024-02-15T04:37:48;12.60;99.90
31133;DHT22;17779;50.942;4.026;2024-02-15T04:40:14;12.50;99.90
31133;DHT22;17779;50.942;4.026;2024-02-15T04:42:40;12.50;99.90
31133;DHT22;17779;50.942;4.026;2024-02-15T04:45:08;12.50;99.90
31133;DHT22;17779;50.942;4.026;2024-02-15T04:47:36;12.50;99.90
31133;DHT22;17779;50.942;4.026;2024-02-15T04:50:02;12.50;99.90
31133;DHT22;17779;50.942;4.026;2024-02-15T04:52:30;12.50;99.90
31133;DHT22;17779;50.942;4.026;2024-02-15T04:54:55;12.60;99.90
31133;DHT22;17779;50.942;4.026;2024-02-15T04:57:23;12.60;99.90
31133;DHT22;17779;50.942;4.026;2024-02-15T04:59:49;12.60;99.90
31133;DHT22;17779;50.942;4.026;2024-02-15T05:02:15;12.60;99.90
31133;DHT22;17779;50.942;4.026;2024-02-15T05:04:40;12.70;99.90
31133;DHT22;17779;50.942;4.026;2024-02-15T05:07:08;12.60;99.90
31133;DHT22;17779;50.942;4.026;2024-02-15T05:09:35;12.60;99.90
31133;DHT22;17779;50.942;4.026;2024-02-15T05:12:01;12.70;99.90
31133;DHT22;17779;50.942;4.026;2024-02-15T05:14:28;12.60;99.90
31133;DHT22;17779;50.942;4.026;2024-02-15T05:19:24;12.60;99.90
31133;DHT22;17779;50.942;4.026;2024-02-15T05:21:50;12.60;99.90
31133;DHT22;17779;50.942;4.026;2024-02-15T05:24:16;12.60;99.90
31133;DHT22;17779;50.942;4.026;2024-02-15T05:26:45;12.60;99.90
31133;DHT22;17779;50.942;4.026;2024-02-15T05:29:19;12.60;99.90
31133;DHT22;17779;50.942;4.026;2024-02-15T05:31:54;12.60;99.90
31133;DHT22;17779;50.942;4.026;2024-02-15T05:34:20;12.60;99.90
31133;DHT22;17779;50.942;4.026;2024-02-15T05:36:45;12.60;99.90
31133;DHT22;17779;50.942;4.026;2024-02-15T05:39:13;12.60;99.90
31133;DHT22;17779;50.942;4.026;2024-02-15T05:41:40;12.70;99.90
31133;DHT22;17779;50.942;4.026;2024-02-15T05:44:07;12.70;99.90
31133;DHT22;17779;50.942;4.026;2024-02-15T05:46:35;12.80;99.90
31133;DHT22;17779;50.942;4.026;2024-02-15T05:49:08;12.80;99.90
31133;DHT22;17779;50.942;4.026;2024-02-15T05:51:41;12.70;99.90
31133;DHT22;17779;50.942;4.026;2024-02-15T05:54:10;12.70;99.90
31133;DHT22;17779;50.942;4.026;2024-02-15T05:56:36;12.70;99.90
31133;DHT22;17779;50.942;4.026;2024-02-15T05:59:01;12.70;99.90
31133;DHT22;17779;50.942;4.026;2024-02-15T06:01:36;12.70;99.90
31133;DHT22;17779;50.942;4.026;2024-02-15T06:04:01;12.80;99.90
31133;DHT22;17779;50.942;4.026;2024-02-15T06:06:31;12.80;99.90
31133;DHT22;17779;50.942;4.026;2024-02-15T06:08:57;12.80;99.90
31133;DHT22;17779;50.942;4.026;2024-02-15T06:11:25;12.90;99.90
31133;DHT22;17779;50.942;4.026;2024-02-15T06:13:51;12.90;99.90
31133;DHT22;17779;50.942;4.026;2024-02-15T06:16:16;12.80;99.90
31133;DHT22;17779;50.942;4.026;2024-02-15T06:18:43;12.90;99.90
31133;DHT22;17779;50.942;4.026;2024-02-15T06:21:08;12.80;99.90
31133;DHT22;17779;50.942;4.026;2024-02-15T06:23:34;12.80;99.90
31133;DHT22;17779;50.942;4.026;2024-02-15T06:26:01;12.70;99.90
31133;DHT22;17779;50.942;4.026;2024-02-15T06:28:28;12.60;99.90
31133;DHT22;17779;50.942;4.026;2024-02-15T06:31:12;12.60;99.90
31133;DHT22;17779;50.942;4.026;2024-02-15T06:33:57;12.70;99.90
31133;DHT22;17779;50.942;4.026;2024-02-15T06:36:45;12.70;99.90
31133;DHT22;17779;50.942;4.026;2024-02-15T06:39:29;12.80;99.90
31133;DHT22;17779;50.942;4.026;2024-02-15T06:42:08;12.70;99.90
31133;DHT22;17779;50.942;4.026;2024-02-15T06:44:34;12.80;99.90
31133;DHT22;17779;50.942;4.026;2024-02-15T06:47:00;12.80;99.90
31133;DHT22;17779;50.942;4.026;2024-02-15T06:49:26;12.80;99.90
31133;DHT22;17779;50.942;4.026;2024-02-15T06:51:51;12.80;99.90
31133;DHT22;17779;50.942;4.026;2024-02-15T06:54:17;12.70;99.90
31133;DHT22;17779;50.942;4.026;2024-02-15T06:56:46;12.70;99.90
31133;DHT22;17779;50.942;4.026;2024-02-15T06:59:13;12.60;99.90
31133;DHT22;17779;50.942;4.026;2024-02-15T07:01:43;12.70;99.90
31133;DHT22;17779;50.942;4.026;2024-02-15T07:04:09;12.70;99.90
31133;DHT22;17779;50.942;4.026;2024-02-15T07:06:39;12.70;99.90
31133;DHT22;17779;50.942;4.026;2024-02-15T07:09:05;12.60;99.90
31133;DHT22;17779;50.942;4.026;2024-02-15T07:11:34;12.60;99.90
31133;DHT22;17779;50.942;4.026;2024-02-15T07:14:00;12.60;99.90
31133;DHT22;17779;50.942;4.026;2024-02-15T07:16:26;12.60;99.90
31133;DHT22;17779;50.942;4.026;2024-02-15T07:18:52;12.60;99.90
31133;DHT22;17779;50.942;4.026;2024-02-15T07:21:19;12.70;99.90
31133;DHT22;17779;50.942;4.026;2024-02-15T07:23:48;12.60;99.90
31133;DHT22;17779;50.942;4.026;2024-02-15T07:26:14;12.60;99.90
31133;DHT22;17779;50.942;4.026;2024-02-15T07:28:40;12.70;99.90
31133;DHT22;17779;50.942;4.026;2024-02-15T07:31:06;12.80;99.90
31133;DHT22;17779;50.942;4.026;2024-02-15T07:33:32;12.90;99.90
31133;DHT22;17779;50.942;4.026;2024-02-15T07:35:57;12.80;99.90
31133;DHT22;17779;50.942;4.026;2024-02-15T07:38:23;12.80;99.90
31133;DHT22;17779;50.942;4.026;2024-02-15T07:40:50;12.80;99.90
31133;DHT22;17779;50.942;4.026;2024-02-15T07:43:16;12.80;99.90
31133;DHT22;17779;50.942;4.026;2024-02-15T07:45:42;12.90;99.90
31133;DHT22;17779;50.942;4.026;2024-02-15T07:48:08;12.90;99.90
31133;DHT22;17779;50.942;4.026;2024-02-15T07:50:34;13.00;99.90
31133;DHT22;17779;50.942;4.026;2024-02-15T07:53:03;13.00;99.90
31133;DHT22;17779;50.942;4.026;2024-02-15T07:55:28;13.00;99.90
31133;DHT22;17779;50.942;4.026;2024-02-15T07:57:54;13.10;99.90
31133;DHT22;17779;50.942;4.026;2024-02-15T08:00:21;13.10;99.90
31133;DHT22;17779;50.942;4.026;2024-02-15T08:02:46;13.10;99.90
31133;DHT22;17779;50.942;4.026;2024-02-15T08:05:12;13.20;99.90
31133;DHT22;17779;50.942;4.026;2024-02-15T08:07:43;13.40;99.90
31133;DHT22;17779;50.942;4.026;2024-02-15T08:10:12;13.40;99.90
31133;DHT22;17779;50.942;4.026;2024-02-15T08:12:42;13.50;99.90
31133;DHT22;17779;50.942;4.026;2024-02-15T08:15:08;13.50;99.90
31133;DHT22;17779;50.942;4.026;2024-02-15T08:17:43;13.60;99.90
31133;DHT22;17779;50.942;4.026;2024-02-15T08:20:12;13.60;99.90
31133;DHT22;17779;50.942;4.026;2024-02-15T08:22:39;13.60;99.90
31133;DHT22;17779;50.942;4.026;2024-02-15T08:25:12;13.60;99.90
31133;DHT22;17779;50.942;4.026;2024-02-15T08:27:38;13.60;99.90
31133;DHT22;17779;50.942;4.026;2024-02-15T08:30:08;13.70;99.90
31133;DHT22;17779;50.942;4.026;2024-02-15T08:32:34;13.80;99.90
31133;DHT22;17779;50.942;4.026;2024-02-15T08:35:00;13.70;99.90
31133;DHT22;17779;50.942;4.026;2024-02-15T08:37:26;13.70;99.90
31133;DHT22;17779;50.942;4.026;2024-02-15T08:39:51;13.70;99.90
31133;DHT22;17779;50.942;4.026;2024-02-15T08:42:18;13.70;99.90
31133;DHT22;17779;50.942;4.026;2024-02-15T08:44:50;13.70;99.90
31133;DHT22;17779;50.942;4.026;2024-02-15T08:47:16;13.80;99.90
31133;DHT22;17779;50.942;4.026;2024-02-15T08:49:42;13.90;99.90
31133;DHT22;17779;50.942;4.026;2024-02-15T08:52:07;14.00;99.90
31133;DHT22;17779;50.942;4.026;2024-02-15T08:54:34;14.10;99.90
31133;DHT22;17779;50.942;4.026;2024-02-15T08:56:59;14.20;99.90
31133;DHT22;17779;50.942;4.026;2024-02-15T08:59:26;14.20;99.90
31133;DHT22;17779;50.942;4.026;2024-02-15T09:01:54;14.30;99.90
31133;DHT22;17779;50.942;4.026;2024-02-15T09:04:21;14.30;99.90
31133;DHT22;17779;50.942;4.026;2024-02-15T09:06:48;14.30;99.90
31133;DHT22;17779;50.942;4.026;2024-02-15T09:09:14;14.30;99.90
31133;DHT22;17779;50.942;4.026;2024-02-15T09:11:40;14.50;99.90
31133;DHT22;17779;50.942;4.026;2024-02-15T09:14:06;14.70;99.90
31133;DHT22;17779;50.942;4.026;2024-02-15T09:16:31;14.60;99.90
31133;DHT22;17779;50.942;4.026;2024-02-15T09:18:58;14.80;99.90
31133;DHT22;17779;50.942;4.026;2024-02-15T09:21:26;14.90;99.90
31133;DHT22;17779;50.942;4.026;2024-02-15T09:23:53;15.00;99.90
31133;DHT22;17779;50.942;4.026;2024-02-15T09:26:19;15.10;99.90
31133;DHT22;17779;50.942;4.026;2024-02-15T09:28:45;15.30;99.90
31133;DHT22;17779;50.942;4.026;2024-02-15T09:31:14;15.40;99.90
31133;DHT22;17779;50.942;4.026;2024-02-15T09:33:39;15.50;99.90
31133;DHT22;17779;50.942;4.026;2024-02-15T09:36:05;15.50;99.90
31133;DHT22;17779;50.942;4.026;2024-02-15T09:38:31;15.50;99.90
31133;DHT22;17779;50.942;4.026;2024-02-15T09:40:56;15.50;99.90
31133;DHT22;17779;50.942;4.026;2024-02-15T09:43:22;15.40;99.90
31133;DHT22;17779;50.942;4.026;2024-02-15T09:45:51;15.20;99.90
31133;DHT22;17779;50.942;4.026;2024-02-15T09:48:18;15.10;99.90
31133;DHT22;17779;50.942;4.026;2024-02-15T09:50:44;15.20;99.90
31133;DHT22;17779;50.942;4.026;2024-02-15T09:53:12;15.30;99.90
31133;DHT22;17779;50.942;4.026;2024-02-15T09:55:39;15.20;99.90
31133;DHT22;17779;50.942;4.026;2024-02-15T09:58:07;15.20;99.90
31133;DHT22;17779;50.942;4.026;2024-02-15T10:00:34;15.30;99.90
31133;DHT22;17779;50.942;4.026;2024-02-15T10:03:00;15.30;99.90
31133;DHT22;17779;50.942;4.026;2024-02-15T10:05:27;15.40;99.90
31133;DHT22;17779;50.942;4.026;2024-02-15T10:07:53;15.50;99.90
31133;DHT22;17779;50.942;4.026;2024-02-15T10:10:19;15.70;99.90
31133;DHT22;17779;50.942;4.026;2024-02-15T10:12:45;15.90;99.90
31133;DHT22;17779;50.942;4.026;2024-02-15T10:15:29;16.00;99.90
31133;DHT22;17779;50.942;4.026;2024-02-15T10:17:56;15.90;99.90
31133;DHT22;17779;50.942;4.026;2024-02-15T10:20:22;15.80;99.90
31133;DHT22;17779;50.942;4.026;2024-02-15T10:23:13;15.70;99.90
31133;DHT22;17779;50.942;4.026;2024-02-15T10:25:38;15.60;99.90
31133;DHT22;17779;50.942;4.026;2024-02-15T10:30:39;15.90;99.90
31133;DHT22;17779;50.942;4.026;2024-02-15T10:33:05;16.30;99.90
31133;DHT22;17779;50.942;4.026;2024-02-15T10:35:32;16.60;99.90
31133;DHT22;17779;50.942;4.026;2024-02-15T10:38:08;16.90;99.90
31133;DHT22;17779;50.942;4.026;2024-02-15T10:40:35;17.20;99.90
31133;DHT22;17779;50.942;4.026;2024-02-15T10:43:02;16.80;99.90
31133;DHT22;17779;50.942;4.026;2024-02-15T10:45:28;16.70;99.90
31133;DHT22;17779;50.942;4.026;2024-02-15T10:47:56;16.70;99.90
31133;DHT22;17779;50.942;4.026;2024-02-15T10:50:22;16.70;99.90
31133;DHT22;17779;50.942;4.026;2024-02-15T10:52:54;16.70;99.90
31133;DHT22;17779;50.942;4.026;2024-02-15T10:55:21;16.70;99.90
31133;DHT22;17779;50.942;4.026;2024-02-15T10:57:47;16.60;99.90
31133;DHT22;17779;50.942;4.026;2024-02-15T11:00:15;16.60;99.90
31133;DHT22;17779;50.942;4.026;2024-02-15T11:02:50;16.50;99.90
31133;DHT22;17779;50.942;4.026;2024-02-15T11:05:19;16.40;99.90
31133;DHT22;17779;50.942;4.026;2024-02-15T11:07:49;16.40;99.90
31133;DHT22;17779;50.942;4.026;2024-02-15T11:10:14;16.20;99.90
31133;DHT22;17779;50.942;4.026;2024-02-15T11:12:42;16.30;99.90
31133;DHT22;17779;50.942;4.026;2024-02-15T11:15:08;16.20;99.90
31133;DHT22;17779;50.942;4.026;2024-02-15T11:20:09;16.30;99.90
31133;DHT22;17779;50.942;4.026;2024-02-15T11:22:36;16.30;99.90
31133;DHT22;17779;50.942;4.026;2024-02-15T11:25:05;16.20;99.90
31133;DHT22;17779;50.942;4.026;2024-02-15T11:27:36;16.30;99.90
31133;DHT22;17779;50.942;4.026;2024-02-15T11:30:06;16.30;99.90
31133;DHT22;17779;50.942;4.026;2024-02-15T11:32:35;16.50;99.90
31133;DHT22;17779;50.942;4.026;2024-02-15T11:35:07;16.60;99.90
31133;DHT22;17779;50.942;4.026;2024-02-15T11:40:16;16.70;99.90
31133;DHT22;17779;50.942;4.026;2024-02-15T11:42:42;16.70;99.90
31133;DHT22;17779;50.942;4.026;2024-02-15T11:45:08;16.80;99.90
31133;DHT22;17779;50.942;4.026;2024-02-15T11:47:36;16.70;99.90
31133;DHT22;17779;50.942;4.026;2024-02-15T11:50:02;16.80;99.90
31133;DHT22;17779;50.942;4.026;2024-02-15T11:52:28;16.90;99.90
31133;DHT22;17779;50.942;4.026;2024-02-15T11:54:54;16.90;99.90
31133;DHT22;17779;50.942;4.026;2024-02-15T11:57:29;16.90;99.90
31133;DHT22;17779;50.942;4.026;2024-02-15T12:00:02;16.80;99.90
31133;DHT22;17779;50.942;4.026;2024-02-15T12:02:46;16.60;99.90
31133;DHT22;17779;50.942;4.026;2024-02-15T12:05:31;16.60;99.90
31133;DHT22;17779;50.942;4.026;2024-02-15T12:08:16;16.70;99.90
31133;DHT22;17779;50.942;4.026;2024-02-15T12:11:00;16.60;99.90
31133;DHT22;17779;50.942;4.026;2024-02-15T12:13:49;16.70;99.90
31133;DHT22;17779;50.942;4.026;2024-02-15T12:16:34;17.00;99.90
31133;DHT22;17779;50.942;4.026;2024-02-15T12:19:26;17.10;99.90
31133;DHT22;17779;50.942;4.026;2024-02-15T12:21:52;17.20;99.90
31133;DHT22;17779;50.942;4.026;2024-02-15T12:24:18;17.10;99.90
31133;DHT22;17779;50.942;4.026;2024-02-15T12:26:47;17.20;99.90
31133;DHT22;17779;50.942;4.026;2024-02-15T12:29:17;17.20;99.90
31133;DHT22;17779;50.942;4.026;2024-02-15T12:31:43;17.40;99.90
31133;DHT22;17779;50.942;4.026;2024-02-15T12:34:09;17.50;99.90
31133;DHT22;17779;50.942;4.026;2024-02-15T12:36:35;17.60;99.90
31133;DHT22;17779;50.942;4.026;2024-02-15T12:39:05;17.70;99.90
31133;DHT22;17779;50.942;4.026;2024-02-15T12:41:39;17.80;99.90
31133;DHT22;17779;50.942;4.026;2024-02-15T12:44:06;17.80;99.90
31133;DHT22;17779;50.942;4.026;2024-02-15T12:46:34;17.70;99.90
31133;DHT22;17779;50.942;4.026;2024-02-15T12:51:40;17.80;99.90
31133;DHT22;17779;50.942;4.026;2024-02-15T12:54:09;17.90;99.90
31133;DHT22;17779;50.942;4.026;2024-02-15T12:56:39;18.20;99.90
31133;DHT22;17779;50.942;4.026;2024-02-15T12:59:05;18.10;99.90
31133;DHT22;17779;50.942;4.026;2024-02-15T13:01:31;18.10;99.90
31133;DHT22;17779;50.942;4.026;2024-02-15T13:03:57;18.10;99.90
31133;DHT22;17779;50.942;4.026;2024-02-15T13:06:23;18.10;99.90
31133;DHT22;17779;50.942;4.026;2024-02-15T13:08:49;18.00;99.90
31133;DHT22;17779;50.942;4.026;2024-02-15T13:11:15;18.00;99.90
31133;DHT22;17779;50.942;4.026;2024-02-15T13:13:41;17.90;99.90
31133;DHT22;17779;50.942;4.026;2024-02-15T13:16:07;18.10;99.90
31133;DHT22;17779;50.942;4.026;2024-02-15T13:18:33;17.90;99.90
31133;DHT22;17779;50.942;4.026;2024-02-15T13:20:59;18.10;99.90
31133;DHT22;17779;50.942;4.026;2024-02-15T13:23:24;18.10;99.90
31133;DHT22;17779;50.942;4.026;2024-02-15T13:25:53;18.20;99.90
31133;DHT22;17779;50.942;4.026;2024-02-15T13:28:19;18.20;99.90
31133;DHT22;17779;50.942;4.026;2024-02-15T13:30:44;18.40;99.90
31133;DHT22;17779;50.942;4.026;2024-02-15T13:33:11;18.60;99.90
31133;DHT22;17779;50.942;4.026;2024-02-15T13:35:36;18.70;99.90
31133;DHT22;17779;50.942;4.026;2024-02-15T13:38:02;18.70;99.90
31133;DHT22;17779;50.942;4.026;2024-02-15T13:40:28;18.60;99.90
31133;DHT22;17779;50.942;4.026;2024-02-15T13:42:58;18.10;99.90
31133;DHT22;17779;50.942;4.026;2024-02-15T13:45:27;18.10;99.90
31133;DHT22;17779;50.942;4.026;2024-02-15T13:47:56;18.10;99.90
31133;DHT22;17779;50.942;4.026;2024-02-15T13:50:21;18.10;99.90
31133;DHT22;17779;50.942;4.026;2024-02-15T13:52:49;18.20;99.90
31133;DHT22;17779;50.942;4.026;2024-02-15T13:55:15;18.20;99.90
31133;DHT22;17779;50.942;4.026;2024-02-15T13:57:41;18.00;99.90
31133;DHT22;17779;50.942;4.026;2024-02-15T14:00:10;17.90;99.90
31133;DHT22;17779;50.942;4.026;2024-02-15T14:05:15;18.10;99.90
31133;DHT22;17779;50.942;4.026;2024-02-15T14:07:48;18.00;99.90
31133;DHT22;17779;50.942;4.026;2024-02-15T14:10:15;18.00;99.90
31133;DHT22;17779;50.942;4.026;2024-02-15T14:12:40;18.00;99.90
31133;DHT22;17779;50.942;4.026;2024-02-15T14:15:06;18.00;99.90
31133;DHT22;17779;50.942;4.026;2024-02-15T14:17:32;17.90;99.90
31133;DHT22;17779;50.942;4.026;2024-02-15T14:19:57;17.70;99.90
31133;DHT22;17779;50.942;4.026;2024-02-15T14:22:23;17.60;99.90
31133;DHT22;17779;50.942;4.026;2024-02-15T14:24:49;17.60;99.90
31133;DHT22;17779;50.942;4.026;2024-02-15T14:27:15;17.50;99.90
31133;DHT22;17779;50.942;4.026;2024-02-15T14:29:40;17.60;99.90
31133;DHT22;17779;50.942;4.026;2024-02-15T14:32:26;17.70;99.90
31133;DHT22;17779;50.942;4.026;2024-02-15T14:35:10;17.50;99.90
31133;DHT22;17779;50.942;4.026;2024-02-15T14:37:36;17.60;99.90
31133;DHT22;17779;50.942;4.026;2024-02-15T14:40:02;17.60;99.90
31133;DHT22;17779;50.942;4.026;2024-02-15T14:42:28;17.50;99.90
31133;DHT22;17779;50.942;4.026;2024-02-15T14:44:54;17.50;99.90
31133;DHT22;17779;50.942;4.026;2024-02-15T14:47:20;17.50;99.90
31133;DHT22;17779;50.942;4.026;2024-02-15T14:49:47;17.40;99.90
31133;DHT22;17779;50.942;4.026;2024-02-15T14:52:12;17.40;99.90
31133;DHT22;17779;50.942;4.026;2024-02-15T14:54:39;17.40;99.90
31133;DHT22;17779;50.942;4.026;2024-02-15T14:57:05;17.50;99.90
31133;DHT22;17779;50.942;4.026;2024-02-15T14:59:32;17.50;99.90
31133;DHT22;17779;50.942;4.026;2024-02-15T15:01:59;17.60;99.90
31133;DHT22;17779;50.942;4.026;2024-02-15T15:04:34;17.60;99.90
31133;DHT22;17779;50.942;4.026;2024-02-15T15:07:12;17.40;99.90
31133;DHT22;17779;50.942;4.026;2024-02-15T15:09:56;17.50;99.90
31133;DHT22;17779;50.942;4.026;2024-02-15T15:12:41;17.40;99.90
31133;DHT22;17779;50.942;4.026;2024-02-15T15:15:11;17.40;99.90
31133;DHT22;17779;50.942;4.026;2024-02-15T15:17:38;17.40;99.90
31133;DHT22;17779;50.942;4.026;2024-02-15T15:20:04;17.40;99.90
31133;DHT22;17779;50.942;4.026;2024-02-15T15:22:34;17.40;99.90
31133;DHT22;17779;50.942;4.026;2024-02-15T15:25:00;17.30;99.90
31133;DHT22;17779;50.942;4.026;2024-02-15T15:27:27;17.30;99.90
31133;DHT22;17779;50.942;4.026;2024-02-15T15:29:52;17.30;99.90
31133;DHT22;17779;50.942;4.026;2024-02-15T15:32:18;17.40;99.90
31133;DHT22;17779;50.942;4.026;2024-02-15T15:34:43;17.50;99.90
31133;DHT22;17779;50.942;4.026;2024-02-15T15:37:09;17.40;99.90
31133;DHT22;17779;50.942;4.026;2024-02-15T15:39:37;17.30;99.90
31133;DHT22;17779;50.942;4.026;2024-02-15T15:42:03;17.40;99.90
31133;DHT22;17779;50.942;4.026;2024-02-15T15:44:32;17.20;99.90
31133;DHT22;17779;50.942;4.026;2024-02-15T15:46:59;17.30;99.90
31133;DHT22;17779;50.942;4.026;2024-02-15T15:49:25;17.10;99.90
31133;DHT22;17779;50.942;4.026;2024-02-15T15:51:50;17.00;99.90